sensor_id;sensor_type;location;lat;lon;timestamp;temperature;humidity
67942;SHT31;54731;42.600;23.476;2023-06-22T00:00:51;19.26;71.42
67942;SHT31;54731;42.600;23.476;2023-06-22T00:03:18;19.24;71.89
67942;SHT31;54731;42.600;23.476;2023-06-22T00:05:43;19.20;71.98
67942;SHT31;54731;42.600;23.476;2023-06-22T00:08:09;19.18;71.50
67942;SHT31;54731;42.600;23.476;2023-06-22T00:10:34;19.13;71.73
67942;SHT31;54731;42.600;23.476;2023-06-22T00:12:59;19.11;71.57
67942;SHT31;54731;42.600;23.476;2023-06-22T00:15:25;19.06;72.00
67942;SHT31;54731;42.600;23.476;2023-06-22T00:17:51;19.00;71.84
67942;SHT31;54731;42.600;23.476;2023-06-22T00:20:16;19.00;71.41
67942;SHT31;54731;42.600;23.476;2023-06-22T00:22:42;18.96;70.78
67942;SHT31;54731;42.600;23.476;2023-06-22T00:25:07;18.97;70.76
67942;SHT31;54731;42.600;23.476;2023-06-22T00:27:33;18.96;71.22
67942;SHT31;54731;42.600;23.476;2023-06-22T00:29:58;18.93;71.61
67942;SHT31;54731;42.600;23.476;2023-06-22T00:32:23;18.93;71.80
67942;SHT31;54731;42.600;23.476;2023-06-22T00:34:49;18.89;72.01
67942;SHT31;54731;42.600;23.476;2023-06-22T00:37:14;18.86;72.20
67942;SHT31;54731;42.600;23.476;2023-06-22T00:39:39;18.83;70.45
67942;SHT31;54731;42.600;23.476;2023-06-22T00:42:05;18.74;70.76
67942;SHT31;54731;42.600;23.476;2023-06-22T00:44:30;18.80;71.00
67942;SHT31;54731;42.600;23.476;2023-06-22T00:46:55;18.76;70.60
67942;SHT31;54731;42.600;23.476;2023-06-22T00:49:21;18.72;71.20
67942;SHT31;54731;42.600;23.476;2023-06-22T00:51:46;18.67;71.42
67942;SHT31;54731;42.600;23.476;2023-06-22T00:54:12;18.69;71.34
67942;SHT31;54731;42.600;23.476;2023-06-22T00:56:37;18.67;71.12
67942;SHT31;54731;42.600;23.476;2023-06-22T00:59:02;18.70;70.62
67942;SHT31;54731;42.600;23.476;2023-06-22T01:01:28;18.76;69.28
67942;SHT31;54731;42.600;23.476;2023-06-22T01:03:53;18.70;69.30
67942;SHT31;54731;42.600;23.476;2023-06-22T01:06:28;18.72;70.15
67942;SHT31;54731;42.600;23.476;2023-06-22T01:09:02;18.77;69.51
67942;SHT31;54731;42.600;23.476;2023-06-22T01:11:36;18.87;69.05
67942;SHT31;54731;42.600;23.476;2023-06-22T01:14:41;18.92;69.86
67942;SHT31;54731;42.600;23.476;2023-06-22T01:17:08;18.92;69.48
67942;SHT31;54731;42.600;23.476;2023-06-22T01:19:35;18.92;69.73
67942;SHT31;54731;42.600;23.476;2023-06-22T01:22:03;18.87;71.01
67942;SHT31;54731;42.600;23.476;2023-06-22T01:24:36;18.87;70.54
67942;SHT31;54731;42.600;23.476;2023-06-22T01:27:28;18.84;70.58
67942;SHT31;54731;42.600;23.476;2023-06-22T01:29:56;18.80;70.72
67942;SHT31;54731;42.600;23.476;2023-06-22T01:32:22;18.74;70.59
67942;SHT31;54731;42.600;23.476;2023-06-22T01:34:48;18.76;69.74
67942;SHT31;54731;42.600;23.476;2023-06-22T01:37:14;18.76;69.28
67942;SHT31;54731;42.600;23.476;2023-06-22T01:39:40;18.77;69.54
67942;SHT31;54731;42.600;23.476;2023-06-22T01:42:06;18.77;69.45
67942;SHT31;54731;42.600;23.476;2023-06-22T01:44:32;18.79;69.56
67942;SHT31;54731;42.600;23.476;2023-06-22T01:46:59;18.76;69.59
67942;SHT31;54731;42.600;23.476;2023-06-22T01:49:25;18.73;70.35
67942;SHT31;54731;42.600;23.476;2023-06-22T01:51:50;18.67;71.11
67942;SHT31;54731;42.600;23.476;2023-06-22T01:54:16;18.59;71.71
67942;SHT31;54731;42.600;23.476;2023-06-22T01:56:41;18.59;72.34
67942;SHT31;54731;42.600;23.476;2023-06-22T01:59:14;18.52;72.89
67942;SHT31;54731;42.600;23.476;2023-06-22T02:01:44;18.52;72.97
67942;SHT31;54731;42.600;23.476;2023-06-22T02:04:20;18.45;72.71
67942;SHT31;54731;42.600;23.476;2023-06-22T02:06:47;18.39;72.66
67942;SHT31;54731;42.600;23.476;2023-06-22T02:09:17;18.35;72.76
67942;SHT31;54731;42.600;23.476;2023-06-22T02:11:45;18.31;72.49
67942;SHT31;54731;42.600;23.476;2023-06-22T02:14:13;18.35;72.49
67942;SHT31;54731;42.600;23.476;2023-06-22T02:16:38;18.26;72.77
67942;SHT31;54731;42.600;23.476;2023-06-22T02:19:04;18.19;72.97
67942;SHT31;54731;42.600;23.476;2023-06-22T02:21:30;18.11;73.19
67942;SHT31;54731;42.600;23.476;2023-06-22T02:23:55;18.11;73.17
67942;SHT31;54731;42.600;23.476;2023-06-22T02:26:20;18.11;72.77
67942;SHT31;54731;42.600;23.476;2023-06-22T02:28:46;18.06;72.96
67942;SHT31;54731;42.600;23.476;2023-06-22T02:31:11;18.06;72.94
67942;SHT31;54731;42.600;23.476;2023-06-22T02:33:36;18.08;73.22
67942;SHT31;54731;42.600;23.476;2023-06-22T02:36:02;18.04;73.05
67942;SHT31;54731;42.600;23.476;2023-06-22T02:38:27;18.05;72.62
67942;SHT31;54731;42.600;23.476;2023-06-22T02:40:53;18.06;72.66
67942;SHT31;54731;42.600;23.476;2023-06-22T02:43:18;18.02;73.07
67942;SHT31;54731;42.600;23.476;2023-06-22T02:45:43;17.98;73.40
67942;SHT31;54731;42.600;23.476;2023-06-22T02:48:09;17.94;73.75
67942;SHT31;54731;42.600;23.476;2023-06-22T02:50:35;17.95;73.55
67942;SHT31;54731;42.600;23.476;2023-06-22T02:53:00;17.94;73.24
67942;SHT31;54731;42.600;23.476;2023-06-22T02:55:25;17.88;73.32
67942;SHT31;54731;42.600;23.476;2023-06-22T02:57:51;17.87;73.45
67942;SHT31;54731;42.600;23.476;2023-06-22T03:00:16;17.82;73.74
67942;SHT31;54731;42.600;23.476;2023-06-22T03:02:41;17.78;73.68
67942;SHT31;54731;42.600;23.476;2023-06-22T03:05:07;17.75;74.36
67942;SHT31;54731;42.600;23.476;2023-06-22T03:07:32;17.75;74.69
67942;SHT31;54731;42.600;23.476;2023-06-22T03:09:57;17.78;74.87
67942;SHT31;54731;42.600;23.476;2023-06-22T03:12:23;17.71;75.15
67942;SHT31;54731;42.600;23.476;2023-06-22T03:14:48;17.64;75.77
67942;SHT31;54731;42.600;23.476;2023-06-22T03:17:13;17.64;75.96
67942;SHT31;54731;42.600;23.476;2023-06-22T03:19:38;17.66;76.42
67942;SHT31;54731;42.600;23.476;2023-06-22T03:22:04;17.68;76.20
67942;SHT31;54731;42.600;23.476;2023-06-22T03:24:29;17.71;75.89
67942;SHT31;54731;42.600;23.476;2023-06-22T03:26:55;17.70;75.93
67942;SHT31;54731;42.600;23.476;2023-06-22T03:29:20;17.68;75.99
67942;SHT31;54731;42.600;23.476;2023-06-22T03:31:46;17.71;76.17
67942;SHT31;54731;42.600;23.476;2023-06-22T03:34:11;17.70;76.34
67942;SHT31;54731;42.600;23.476;2023-06-22T03:36:36;17.77;76.51
67942;SHT31;54731;42.600;23.476;2023-06-22T03:39:01;17.75;76.31
67942;SHT31;54731;42.600;23.476;2023-06-22T03:41:27;17.73;76.51
67942;SHT31;54731;42.600;23.476;2023-06-22T03:43:52;17.73;76.62
67942;SHT31;54731;42.600;23.476;2023-06-22T03:46:17;17.73;76.74
67942;SHT31;54731;42.600;23.476;2023-06-22T03:48:43;17.68;77.43
67942;SHT31;54731;42.600;23.476;2023-06-22T03:51:08;17.71;77.65
67942;SHT31;54731;42.600;23.476;2023-06-22T03:53:33;17.66;77.78
67942;SHT31;54731;42.600;23.476;2023-06-22T03:55:58;17.67;77.87
67942;SHT31;54731;42.600;23.476;2023-06-22T03:58:24;17.67;77.94
67942;SHT31;54731;42.600;23.476;2023-06-22T04:00:50;17.67;78.07
67942;SHT31;54731;42.600;23.476;2023-06-22T04:03:16;17.66;77.84
67942;SHT31;54731;42.600;23.476;2023-06-22T04:05:42;17.55;78.26
67942;SHT31;54731;42.600;23.476;2023-06-22T04:08:07;17.48;78.42
67942;SHT31;54731;42.600;23.476;2023-06-22T04:10:33;17.55;78.45
67942;SHT31;54731;42.600;23.476;2023-06-22T04:12:59;17.61;78.37
67942;SHT31;54731;42.600;23.476;2023-06-22T04:15:24;17.66;78.30
67942;SHT31;54731;42.600;23.476;2023-06-22T04:17:49;17.68;78.26
67942;SHT31;54731;42.600;23.476;2023-06-22T04:20:14;17.70;78.18
67942;SHT31;54731;42.600;23.476;2023-06-22T04:22:40;17.73;78.15
67942;SHT31;54731;42.600;23.476;2023-06-22T04:25:06;17.77;78.18
67942;SHT31;54731;42.600;23.476;2023-06-22T04:27:31;17.84;78.29
67942;SHT31;54731;42.600;23.476;2023-06-22T04:29:57;17.88;78.08
67942;SHT31;54731;42.600;23.476;2023-06-22T04:32:22;17.87;78.03
67942;SHT31;54731;42.600;23.476;2023-06-22T04:34:47;17.92;78.08
67942;SHT31;54731;42.600;23.476;2023-06-22T04:37:13;17.94;78.15
67942;SHT31;54731;42.600;23.476;2023-06-22T04:39:38;18.01;78.09
67942;SHT31;54731;42.600;23.476;2023-06-22T04:42:04;18.04;78.25
67942;SHT31;54731;42.600;23.476;2023-06-22T04:44:29;18.09;78.38
67942;SHT31;54731;42.600;23.476;2023-06-22T04:46:56;18.09;78.50
67942;SHT31;54731;42.600;23.476;2023-06-22T04:49:22;18.19;78.51
67942;SHT31;54731;42.600;23.476;2023-06-22T04:51:47;18.28;78.64
67942;SHT31;54731;42.600;23.476;2023-06-22T04:54:13;18.35;78.46
67942;SHT31;54731;42.600;23.476;2023-06-22T04:56:38;18.39;78.04
67942;SHT31;54731;42.600;23.476;2023-06-22T04:59:03;18.43;78.14
67942;SHT31;54731;42.600;23.476;2023-06-22T05:01:29;18.55;78.15
67942;SHT31;54731;42.600;23.476;2023-06-22T05:03:54;18.60;77.75
67942;SHT31;54731;42.600;23.476;2023-06-22T05:06:19;18.69;78.00
67942;SHT31;54731;42.600;23.476;2023-06-22T05:08:45;18.80;77.79
67942;SHT31;54731;42.600;23.476;2023-06-22T05:11:10;18.92;78.09
67942;SHT31;54731;42.600;23.476;2023-06-22T05:13:35;18.90;78.59
67942;SHT31;54731;42.600;23.476;2023-06-22T05:16:01;18.94;78.33
67942;SHT31;54731;42.600;23.476;2023-06-22T05:18:28;18.87;78.28
67942;SHT31;54731;42.600;23.476;2023-06-22T05:20:53;18.99;78.07
67942;SHT31;54731;42.600;23.476;2023-06-22T05:23:18;19.03;78.04
67942;SHT31;54731;42.600;23.476;2023-06-22T05:25:44;19.13;77.82
67942;SHT31;54731;42.600;23.476;2023-06-22T05:28:09;19.17;77.96
67942;SHT31;54731;42.600;23.476;2023-06-22T05:30:34;19.24;78.05
67942;SHT31;54731;42.600;23.476;2023-06-22T05:33:00;19.34;77.78
67942;SHT31;54731;42.600;23.476;2023-06-22T05:35:25;19.44;77.44
67942;SHT31;54731;42.600;23.476;2023-06-22T05:37:50;19.51;77.12
67942;SHT31;54731;42.600;23.476;2023-06-22T05:40:15;19.59;77.16
67942;SHT31;54731;42.600;23.476;2023-06-22T05:42:41;19.58;77.21
67942;SHT31;54731;42.600;23.476;2023-06-22T05:45:06;19.64;76.89
67942;SHT31;54731;42.600;23.476;2023-06-22T05:47:32;19.69;76.89
67942;SHT31;54731;42.600;23.476;2023-06-22T05:49:57;19.75;77.12
67942;SHT31;54731;42.600;23.476;2023-06-22T05:52:22;19.78;76.81
67942;SHT31;54731;42.600;23.476;2023-06-22T05:54:47;19.86;76.87
67942;SHT31;54731;42.600;23.476;2023-06-22T05:57:13;19.86;77.31
67942;SHT31;54731;42.600;23.476;2023-06-22T05:59:38;19.88;77.07
67942;SHT31;54731;42.600;23.476;2023-06-22T06:02:04;19.95;77.14
67942;SHT31;54731;42.600;23.476;2023-06-22T06:04:29;20.08;77.06
67942;SHT31;54731;42.600;23.476;2023-06-22T06:06:54;20.16;76.72
67942;SHT31;54731;42.600;23.476;2023-06-22T06:09:19;20.28;76.61
67942;SHT31;54731;42.600;23.476;2023-06-22T06:11:45;20.34;76.92
67942;SHT31;54731;42.600;23.476;2023-06-22T06:14:10;20.43;76.52
67942;SHT31;54731;42.600;23.476;2023-06-22T06:16:35;20.52;75.87
67942;SHT31;54731;42.600;23.476;2023-06-22T06:19:01;20.46;75.89
67942;SHT31;54731;42.600;23.476;2023-06-22T06:21:26;20.54;76.14
67942;SHT31;54731;42.600;23.476;2023-06-22T06:23:51;20.57;76.46
67942;SHT31;54731;42.600;23.476;2023-06-22T06:26:17;20.67;76.06
67942;SHT31;54731;42.600;23.476;2023-06-22T06:28:43;20.81;76.07
67942;SHT31;54731;42.600;23.476;2023-06-22T06:31:08;20.87;76.21
67942;SHT31;54731;42.600;23.476;2023-06-22T06:33:34;20.95;75.86
67942;SHT31;54731;42.600;23.476;2023-06-22T06:35:59;21.05;75.71
67942;SHT31;54731;42.600;23.476;2023-06-22T06:38:24;21.20;75.72
67942;SHT31;54731;42.600;23.476;2023-06-22T06:40:50;21.25;75.58
67942;SHT31;54731;42.600;23.476;2023-06-22T06:43:15;21.35;75.29
67942;SHT31;54731;42.600;23.476;2023-06-22T06:45:40;21.37;74.72
67942;SHT31;54731;42.600;23.476;2023-06-22T06:48:06;21.45;75.18
67942;SHT31;54731;42.600;23.476;2023-06-22T06:50:31;21.57;74.76
67942;SHT31;54731;42.600;23.476;2023-06-22T06:52:56;21.62;73.47
67942;SHT31;54731;42.600;23.476;2023-06-22T06:55:22;21.69;73.88
67942;SHT31;54731;42.600;23.476;2023-06-22T06:57:47;21.74;72.84
67942;SHT31;54731;42.600;23.476;2023-06-22T07:00:13;21.81;72.75
67942;SHT31;54731;42.600;23.476;2023-06-22T07:02:39;21.98;72.86
67942;SHT31;54731;42.600;23.476;2023-06-22T07:05:05;22.05;72.43
67942;SHT31;54731;42.600;23.476;2023-06-22T07:07:31;22.17;71.63
67942;SHT31;54731;42.600;23.476;2023-06-22T07:09:56;22.17;71.33
67942;SHT31;54731;42.600;23.476;2023-06-22T07:12:22;22.16;71.30
67942;SHT31;54731;42.600;23.476;2023-06-22T07:14:47;22.35;71.27
67942;SHT31;54731;42.600;23.476;2023-06-22T07:17:12;22.43;69.78
67942;SHT31;54731;42.600;23.476;2023-06-22T07:19:38;22.51;71.12
67942;SHT31;54731;42.600;23.476;2023-06-22T07:22:03;22.67;70.40
67942;SHT31;54731;42.600;23.476;2023-06-22T07:24:29;22.75;69.56
67942;SHT31;54731;42.600;23.476;2023-06-22T07:26:54;22.86;70.04
67942;SHT31;54731;42.600;23.476;2023-06-22T07:29:20;22.97;69.35
67942;SHT31;54731;42.600;23.476;2023-06-22T07:31:45;23.05;67.67
67942;SHT31;54731;42.600;23.476;2023-06-22T07:34:10;23.14;67.25
67942;SHT31;54731;42.600;23.476;2023-06-22T07:36:36;23.16;66.30
67942;SHT31;54731;42.600;23.476;2023-06-22T07:39:04;23.25;65.76
67942;SHT31;54731;42.600;23.476;2023-06-22T07:41:30;23.29;64.71
67942;SHT31;54731;42.600;23.476;2023-06-22T07:43:56;23.26;62.26
67942;SHT31;54731;42.600;23.476;2023-06-22T07:46:22;23.32;62.15
67942;SHT31;54731;42.600;23.476;2023-06-22T07:48:47;23.29;62.22
67942;SHT31;54731;42.600;23.476;2023-06-22T07:51:13;23.37;63.14
67942;SHT31;54731;42.600;23.476;2023-06-22T07:53:40;23.35;62.62
67942;SHT31;54731;42.600;23.476;2023-06-22T07:56:06;23.44;63.52
67942;SHT31;54731;42.600;23.476;2023-06-22T07:58:31;23.48;62.73
67942;SHT31;54731;42.600;23.476;2023-06-22T08:00:56;23.56;64.36
67942;SHT31;54731;42.600;23.476;2023-06-22T08:03:22;23.65;64.08
67942;SHT31;54731;42.600;23.476;2023-06-22T08:05:47;23.66;62.54
67942;SHT31;54731;42.600;23.476;2023-06-22T08:08:12;23.68;62.31
67942;SHT31;54731;42.600;23.476;2023-06-22T08:10:37;23.70;62.05
67942;SHT31;54731;42.600;23.476;2023-06-22T08:13:03;23.79;60.49
67942;SHT31;54731;42.600;23.476;2023-06-22T08:15:28;23.92;61.16
67942;SHT31;54731;42.600;23.476;2023-06-22T08:17:53;23.97;60.30
67942;SHT31;54731;42.600;23.476;2023-06-22T08:20:19;24.12;61.10
67942;SHT31;54731;42.600;23.476;2023-06-22T08:22:44;24.23;62.22
67942;SHT31;54731;42.600;23.476;2023-06-22T08:25:10;24.40;61.01
67942;SHT31;54731;42.600;23.476;2023-06-22T08:27:36;24.40;59.53
67942;SHT31;54731;42.600;23.476;2023-06-22T08:30:02;24.50;58.60
67942;SHT31;54731;42.600;23.476;2023-06-22T08:32:28;24.59;59.26
67942;SHT31;54731;42.600;23.476;2023-06-22T08:34:57;24.67;54.88
67942;SHT31;54731;42.600;23.476;2023-06-22T08:37:23;24.71;57.58
67942;SHT31;54731;42.600;23.476;2023-06-22T08:39:48;24.75;56.48
67942;SHT31;54731;42.600;23.476;2023-06-22T08:42:13;24.88;58.28
67942;SHT31;54731;42.600;23.476;2023-06-22T08:44:39;25.02;57.78
67942;SHT31;54731;42.600;23.476;2023-06-22T08:47:04;25.10;56.41
67942;SHT31;54731;42.600;23.476;2023-06-22T08:49:29;25.18;57.81
67942;SHT31;54731;42.600;23.476;2023-06-22T08:51:55;25.29;57.03
67942;SHT31;54731;42.600;23.476;2023-06-22T08:54:20;25.46;57.03
67942;SHT31;54731;42.600;23.476;2023-06-22T08:56:45;25.58;58.11
67942;SHT31;54731;42.600;23.476;2023-06-22T08:59:11;25.65;56.03
67942;SHT31;54731;42.600;23.476;2023-06-22T09:01:36;25.75;57.84
67942;SHT31;54731;42.600;23.476;2023-06-22T09:04:01;25.76;56.61
67942;SHT31;54731;42.600;23.476;2023-06-22T09:06:26;25.70;56.60
67942;SHT31;54731;42.600;23.476;2023-06-22T09:08:52;25.72;54.56
67942;SHT31;54731;42.600;23.476;2023-06-22T09:11:17;25.83;55.68
67942;SHT31;54731;42.600;23.476;2023-06-22T09:13:42;25.73;51.26
67942;SHT31;54731;42.600;23.476;2023-06-22T09:16:08;25.76;53.48
67942;SHT31;54731;42.600;23.476;2023-06-22T09:18:36;25.85;55.51
67942;SHT31;54731;42.600;23.476;2023-06-22T09:21:02;25.89;52.82
67942;SHT31;54731;42.600;23.476;2023-06-22T09:23:27;25.97;53.37
67942;SHT31;54731;42.600;23.476;2023-06-22T09:25:52;26.07;53.44
67942;SHT31;54731;42.600;23.476;2023-06-22T09:28:18;26.18;55.52
67942;SHT31;54731;42.600;23.476;2023-06-22T09:30:43;26.27;56.70
67942;SHT31;54731;42.600;23.476;2023-06-22T09:33:09;26.38;55.59
67942;SHT31;54731;42.600;23.476;2023-06-22T09:35:34;26.41;53.85
67942;SHT31;54731;42.600;23.476;2023-06-22T09:37:59;26.40;52.17
67942;SHT31;54731;42.600;23.476;2023-06-22T09:40:24;26.44;52.31
67942;SHT31;54731;42.600;23.476;2023-06-22T09:42:50;26.43;53.07
67942;SHT31;54731;42.600;23.476;2023-06-22T09:45:15;26.38;52.04
67942;SHT31;54731;42.600;23.476;2023-06-22T09:47:40;26.50;52.68
67942;SHT31;54731;42.600;23.476;2023-06-22T09:50:06;26.57;52.49
67942;SHT31;54731;42.600;23.476;2023-06-22T09:52:31;26.65;50.35
67942;SHT31;54731;42.600;23.476;2023-06-22T09:54:57;26.75;51.99
67942;SHT31;54731;42.600;23.476;2023-06-22T09:57:22;26.55;48.84
67942;SHT31;54731;42.600;23.476;2023-06-22T09:59:47;26.64;50.27
67942;SHT31;54731;42.600;23.476;2023-06-22T10:02:12;26.71;51.89
67942;SHT31;54731;42.600;23.476;2023-06-22T10:04:38;26.71;50.71
67942;SHT31;54731;42.600;23.476;2023-06-22T10:07:03;26.77;52.02
67942;SHT31;54731;42.600;23.476;2023-06-22T10:09:29;26.90;49.11
67942;SHT31;54731;42.600;23.476;2023-06-22T10:11:54;27.06;51.09
67942;SHT31;54731;42.600;23.476;2023-06-22T10:14:19;27.08;53.84
67942;SHT31;54731;42.600;23.476;2023-06-22T10:16:45;27.16;49.50
67942;SHT31;54731;42.600;23.476;2023-06-22T10:19:10;27.25;51.09
67942;SHT31;54731;42.600;23.476;2023-06-22T10:21:36;27.33;48.45
67942;SHT31;54731;42.600;23.476;2023-06-22T10:24:01;27.29;46.45
67942;SHT31;54731;42.600;23.476;2023-06-22T10:26:26;27.32;49.71
67942;SHT31;54731;42.600;23.476;2023-06-22T10:28:52;27.45;48.28
67942;SHT31;54731;42.600;23.476;2023-06-22T10:31:17;27.52;50.11
67942;SHT31;54731;42.600;23.476;2023-06-22T10:33:42;27.59;48.70
67942;SHT31;54731;42.600;23.476;2023-06-22T10:36:08;27.83;48.32
67942;SHT31;54731;42.600;23.476;2023-06-22T10:38:33;27.90;47.69
67942;SHT31;54731;42.600;23.476;2023-06-22T10:40:58;28.07;48.42
67942;SHT31;54731;42.600;23.476;2023-06-22T10:43:23;28.11;46.89
67942;SHT31;54731;42.600;23.476;2023-06-22T10:45:49;28.17;47.24
67942;SHT31;54731;42.600;23.476;2023-06-22T10:48:14;28.34;47.81
67942;SHT31;54731;42.600;23.476;2023-06-22T10:50:39;28.38;44.93
67942;SHT31;54731;42.600;23.476;2023-06-22T10:53:05;28.40;47.01
67942;SHT31;54731;42.600;23.476;2023-06-22T10:55:30;28.51;45.47
67942;SHT31;54731;42.600;23.476;2023-06-22T10:57:55;28.59;48.24
67942;SHT31;54731;42.600;23.476;2023-06-22T11:00:20;28.76;48.57
67942;SHT31;54731;42.600;23.476;2023-06-22T11:02:46;28.91;45.46
67942;SHT31;54731;42.600;23.476;2023-06-22T11:05:11;29.09;44.76
67942;SHT31;54731;42.600;23.476;2023-06-22T11:07:37;29.25;43.61
67942;SHT31;54731;42.600;23.476;2023-06-22T11:10:03;29.39;43.34
67942;SHT31;54731;42.600;23.476;2023-06-22T11:12:28;29.32;41.39
67942;SHT31;54731;42.600;23.476;2023-06-22T11:14:54;29.53;43.91
67942;SHT31;54731;42.600;23.476;2023-06-22T11:17:19;29.87;44.84
67942;SHT31;54731;42.600;23.476;2023-06-22T11:19:44;29.98;41.85
67942;SHT31;54731;42.600;23.476;2023-06-22T11:22:10;30.20;42.25
67942;SHT31;54731;42.600;23.476;2023-06-22T11:24:35;30.42;43.59
67942;SHT31;54731;42.600;23.476;2023-06-22T11:27:01;30.65;45.28
67942;SHT31;54731;42.600;23.476;2023-06-22T11:29:26;30.62;42.77
67942;SHT31;54731;42.600;23.476;2023-06-22T11:31:51;31.13;42.92
67942;SHT31;54731;42.600;23.476;2023-06-22T11:34:17;31.87;43.24
67942;SHT31;54731;42.600;23.476;2023-06-22T11:36:42;32.38;39.97
67942;SHT31;54731;42.600;23.476;2023-06-22T11:39:08;32.11;38.05
67942;SHT31;54731;42.600;23.476;2023-06-22T11:41:33;32.04;41.15
67942;SHT31;54731;42.600;23.476;2023-06-22T11:43:58;32.58;40.69
67942;SHT31;54731;42.600;23.476;2023-06-22T11:46:24;32.95;37.08
67942;SHT31;54731;42.600;23.476;2023-06-22T11:48:49;33.19;37.33
67942;SHT31;54731;42.600;23.476;2023-06-22T11:51:15;33.25;38.58
67942;SHT31;54731;42.600;23.476;2023-06-22T11:53:40;33.80;38.34
67942;SHT31;54731;42.600;23.476;2023-06-22T11:56:05;34.10;38.66
67942;SHT31;54731;42.600;23.476;2023-06-22T11:58:31;34.59;36.29
67942;SHT31;54731;42.600;23.476;2023-06-22T12:00:56;34.95;35.82
67942;SHT31;54731;42.600;23.476;2023-06-22T12:03:21;35.56;36.13
67942;SHT31;54731;42.600;23.476;2023-06-22T12:05:47;35.88;33.69
67942;SHT31;54731;42.600;23.476;2023-06-22T12:08:13;35.97;35.07
67942;SHT31;54731;42.600;23.476;2023-06-22T12:10:38;36.28;34.83
67942;SHT31;54731;42.600;23.476;2023-06-22T12:13:03;36.38;36.70
67942;SHT31;54731;42.600;23.476;2023-06-22T12:15:29;36.21;37.18
67942;SHT31;54731;42.600;23.476;2023-06-22T12:17:54;35.51;40.95
67942;SHT31;54731;42.600;23.476;2023-06-22T12:20:19;34.62;40.12
67942;SHT31;54731;42.600;23.476;2023-06-22T12:22:44;33.82;46.76
67942;SHT31;54731;42.600;23.476;2023-06-22T12:25:10;33.54;48.14
67942;SHT31;54731;42.600;23.476;2023-06-22T12:27:37;33.03;48.29
67942;SHT31;54731;42.600;23.476;2023-06-22T12:30:03;31.97;51.51
67942;SHT31;54731;42.600;23.476;2023-06-22T12:32:29;30.78;54.42
67942;SHT31;54731;42.600;23.476;2023-06-22T12:34:54;29.97;56.77
67942;SHT31;54731;42.600;23.476;2023-06-22T12:37:20;29.20;58.19
67942;SHT31;54731;42.600;23.476;2023-06-22T12:39:45;28.71;54.62
67942;SHT31;54731;42.600;23.476;2023-06-22T12:42:10;28.20;54.80
67942;SHT31;54731;42.600;23.476;2023-06-22T12:44:37;27.77;56.26
67942;SHT31;54731;42.600;23.476;2023-06-22T12:47:03;27.52;58.16
67942;SHT31;54731;42.600;23.476;2023-06-22T12:49:28;26.96;58.73
67942;SHT31;54731;42.600;23.476;2023-06-22T12:51:54;26.57;61.36
67942;SHT31;54731;42.600;23.476;2023-06-22T12:54:19;26.38;61.24
67942;SHT31;54731;42.600;23.476;2023-06-22T12:56:44;26.04;60.65
67942;SHT31;54731;42.600;23.476;2023-06-22T12:59:09;25.58;61.33
67942;SHT31;54731;42.600;23.476;2023-06-22T13:01:35;25.02;62.80
67942;SHT31;54731;42.600;23.476;2023-06-22T13:04:00;24.74;62.98
67942;SHT31;54731;42.600;23.476;2023-06-22T13:06:26;24.27;65.02
67942;SHT31;54731;42.600;23.476;2023-06-22T13:08:51;24.09;65.98
67942;SHT31;54731;42.600;23.476;2023-06-22T13:11:16;23.87;67.55
67942;SHT31;54731;42.600;23.476;2023-06-22T13:13:43;23.80;68.44
67942;SHT31;54731;42.600;23.476;2023-06-22T13:16:08;23.61;69.82
67942;SHT31;54731;42.600;23.476;2023-06-22T13:18:33;23.62;70.80
67942;SHT31;54731;42.600;23.476;2023-06-22T13:20:59;23.46;71.36
67942;SHT31;54731;42.600;23.476;2023-06-22T13:23:24;23.35;71.39
67942;SHT31;54731;42.600;23.476;2023-06-22T13:25:49;23.26;72.31
67942;SHT31;54731;42.600;23.476;2023-06-22T13:28:15;23.08;73.36
67942;SHT31;54731;42.600;23.476;2023-06-22T13:30:40;23.08;73.56
67942;SHT31;54731;42.600;23.476;2023-06-22T13:33:06;23.05;73.45
67942;SHT31;54731;42.600;23.476;2023-06-22T13:35:31;22.95;73.71
67942;SHT31;54731;42.600;23.476;2023-06-22T13:37:56;23.01;73.24
67942;SHT31;54731;42.600;23.476;2023-06-22T13:40:21;22.98;73.05
67942;SHT31;54731;42.600;23.476;2023-06-22T13:42:47;22.88;74.75
67942;SHT31;54731;42.600;23.476;2023-06-22T13:45:12;22.74;75.33
67942;SHT31;54731;42.600;23.476;2023-06-22T13:47:37;22.35;76.10
67942;SHT31;54731;42.600;23.476;2023-06-22T13:50:03;22.32;75.26
67942;SHT31;54731;42.600;23.476;2023-06-22T13:52:28;22.35;76.08
67942;SHT31;54731;42.600;23.476;2023-06-22T13:54:54;22.32;76.49
67942;SHT31;54731;42.600;23.476;2023-06-22T13:57:19;22.26;76.36
67942;SHT31;54731;42.600;23.476;2023-06-22T13:59:45;22.29;76.03
67942;SHT31;54731;42.600;23.476;2023-06-22T14:02:10;22.23;76.18
67942;SHT31;54731;42.600;23.476;2023-06-22T14:04:35;22.14;76.32
67942;SHT31;54731;42.600;23.476;2023-06-22T14:07:01;22.08;76.49
67942;SHT31;54731;42.600;23.476;2023-06-22T14:09:26;21.95;76.65
67942;SHT31;54731;42.600;23.476;2023-06-22T14:11:54;21.89;76.85
67942;SHT31;54731;42.600;23.476;2023-06-22T14:14:19;21.71;76.79
67942;SHT31;54731;42.600;23.476;2023-06-22T14:16:45;21.65;76.82
67942;SHT31;54731;42.600;23.476;2023-06-22T14:19:10;21.57;77.15
67942;SHT31;54731;42.600;23.476;2023-06-22T14:21:35;21.51;76.89
67942;SHT31;54731;42.600;23.476;2023-06-22T14:24:01;21.49;77.18
67942;SHT31;54731;42.600;23.476;2023-06-22T14:26:26;21.45;77.28
67942;SHT31;54731;42.600;23.476;2023-06-22T14:28:53;21.37;77.23
67942;SHT31;54731;42.600;23.476;2023-06-22T14:31:19;21.28;77.50
67942;SHT31;54731;42.600;23.476;2023-06-22T14:33:48;21.30;77.53
67942;SHT31;54731;42.600;23.476;2023-06-22T14:36:15;21.24;77.73
67942;SHT31;54731;42.600;23.476;2023-06-22T14:38:40;21.21;78.02
67942;SHT31;54731;42.600;23.476;2023-06-22T14:41:05;21.20;78.11
67942;SHT31;54731;42.600;23.476;2023-06-22T14:43:31;21.17;77.99
67942;SHT31;54731;42.600;23.476;2023-06-22T14:45:56;21.14;77.88
67942;SHT31;54731;42.600;23.476;2023-06-22T14:48:21;21.24;77.60
67942;SHT31;54731;42.600;23.476;2023-06-22T14:50:47;21.21;78.06
67942;SHT31;54731;42.600;23.476;2023-06-22T14:53:12;21.23;77.78
67942;SHT31;54731;42.600;23.476;2023-06-22T14:55:37;21.27;77.93
67942;SHT31;54731;42.600;23.476;2023-06-22T14:58:03;21.28;77.92
67942;SHT31;54731;42.600;23.476;2023-06-22T15:00:28;21.32;77.75
67942;SHT31;54731;42.600;23.476;2023-06-22T15:02:53;21.34;77.49
67942;SHT31;54731;42.600;23.476;2023-06-22T15:05:18;21.41;77.67